ADDS METAR Data INFO
IDs: Format: Raw Decoded Include TAF

Data at: 0314 UTC 20 Jul 2018

KTCC 200253Z AUTO 07007KT 10SM CLR 31/09 A2996 RMK AO2 LTG DSNT SE SLP067 T03110094 53009
KTCC 200153Z AUTO 06012KT 10SM CLR 34/09 A2994 RMK AO2 SLP061 T03440089
KTCC 200053Z AUTO 35006KT 10SM CLR 38/09 A2993 RMK AO2 SLP057 T03830094
KTCC 192353Z AUTO 27011KT 10SM CLR 38/11 A2993 RMK AO2 SLP055 T03780106 10417 20367 55009
KTCC 192253Z AUTO 18005KT 10SM CLR 39/07 A2992 RMK AO2 SLP053 T03940072
KTCC 192153Z AUTO 00000KT 10SM CLR 39/07 A2994 RMK AO2 SLP059 T03940067
KTCC 192053Z AUTO 19012KT 10SM CLR 41/08 A2996 RMK AO2 SLP061 T04110083 56020
KTCC 191953Z AUTO 21014G18KT 10SM CLR 41/09 A2998 RMK AO2 SLP067 T04060094
KTCC 191853Z AUTO 17008G16KT 130V200 10SM CLR 39/12 A3000 RMK AO2 SLP075 T03940117
KTCC 191753Z AUTO 11008KT 10SM CLR 37/14 A3003 RMK AO2 SLP085 T03720139 10372 20228 58007
KTCC 191653Z AUTO VRB03KT 10SM CLR 34/13 A3004 RMK AO2 SLP095 T03390133
KTCC 191553Z AUTO 00000KT 10SM CLR 32/14 A3004 RMK AO2 SLP096 T03220144
KTCC 191453Z AUTO VRB04KT 10SM CLR 29/16 A3005 RMK AO2 SLP100 T02940156 51012
KTCC 191353Z AUTO 01004KT 10SM CLR 27/14 A3004 RMK AO2 SLP097 T02720144
KTCC 191253Z AUTO 00000KT 10SM CLR 23/13 A3003 RMK AO2 SLP090 T02330133
KTCC 191153Z AUTO 23009KT 10SM CLR 24/12 A3001 RMK AO2 SLP082 T02390117 10278 20206 53005
KTCC 191053Z AUTO 30004KT 10SM CLR 22/12 A2999 RMK AO2 SLP078 T02220122
KTCC 190953Z AUTO 00000KT 10SM CLR 23/12 A2999 RMK AO2 SLP077 T02280122
KTCC 190853Z AUTO 27003KT 10SM CLR 25/12 A2999 RMK AO2 SLP076 T02500122 58002
KTCC 190753Z AUTO 18007KT 10SM CLR 26/12 A2999 RMK AO2 SLP076 T02560122
KTCC 190653Z AUTO 17013KT 10SM CLR 28/12 A2999 RMK AO2 SLP075 T02780122 403890194
KTCC 190553Z AUTO 18013KT 10SM CLR 28/13 A2999 RMK AO2 SLP079 T02780128 10389 20272 50008
KTCC 190453Z AUTO 13004KT 10SM CLR 27/13 A3001 RMK AO2 SLP085 T02720133
KTCC 190353Z AUTO 00000KT 10SM CLR 28/13 A3000 RMK AO2 SLP084 T02830128
KTCC 190253Z AUTO 04007KT 10SM CLR 29/14 A2997 RMK AO2 SLP074 T02940139 53005
KTCC 190153Z AUTO 03005KT 10SM CLR 33/13 A2996 RMK AO2 SLP069 T03280133
KTCC 190053Z AUTO 07005KT 10SM CLR 38/11 A2995 RMK AO2 SLP065 T03780111
KTCC 182353Z AUTO 06006KT 10SM CLR 38/12 A2995 RMK AO2 SLP066 T03830117 10389 20333 56015
KTCC 182253Z AUTO 08009KT 10SM CLR 38/12 A2996 RMK AO2 SLP070 T03830117
KTCC 182153Z AUTO VRB03KT 10SM CLR 38/12 A2997 RMK AO2 SLP071 T03830122
KTCC 182053Z AUTO 00000KT 10SM CLR 37/13 A3000 RMK AO2 SLP082 T03720133 56020
KTCC 181953Z AUTO 36006KT 10SM CLR 37/14 A3002 RMK AO2 SLP090 T03720144
KTCC 181853Z AUTO 29007KT 240V310 10SM CLR 36/13 A3004 RMK AO2 SLP098 T03560133
KTCC 181753Z AUTO 00000KT 10SM CLR 33/14 A3006 RMK AO2 SLP106 T03330144 10333 20194 58013
KTCC 181653Z AUTO 29006KT 10SM CLR 31/15 A3008 RMK AO2 SLP115 T03110150
KTCC 181553Z AUTO 27006KT 10SM CLR 29/16 A3009 RMK AO2 SLP121 T02890156